GLO1146 SBGR-SBJE
Flight info
| Callsign | GLO1146 |
|---|---|
| Flight time | 3h 11m |
| Altitude | 37000 |
| Route | NUXEL UZ23 UTLEV UZ88 DABDO DCT ISOTI DCT ILBEM DCT |
| Aircraft | B738/M-SDFGIKLORWX/LB1 |
Departure
| Time | 2026-04-26 17:38 |
|---|---|
| Airport | São Paulo/Guarulhos–Governor André Franco Montoro International Airport (SBGR) |
Arrival
| Time | 2026-04-26 20:50 |
|---|---|
| Airport | Comandante Ariston Pessoa Airport (SBJE) |
| Time | Latitude | Longitude | Altitude | Speed | Heading |
|---|---|---|---|---|---|
| 2026-04-26 16:45 | -23.42792 | -46.48070 | 2460 ft | 0 kts | 84° |
| 2026-04-26 17:21 | -23.42793 | -46.48092 | 2460 ft | 4 kts | 95° |
| 2026-04-26 17:22 | -23.42788 | -46.48120 | 2460 ft | 4 kts | 121° |
| 2026-04-26 17:22 | -23.42771 | -46.48137 | 2460 ft | 3 kts | 172° |
| 2026-04-26 17:22 | -23.42764 | -46.48138 | 2460 ft | 0 kts | 174° |
| 2026-04-26 17:26 | -23.42767 | -46.48137 | 2460 ft | 2 kts | 175° |
| 2026-04-26 17:26 | -23.42792 | -46.48135 | 2460 ft | 4 kts | 175° |
| 2026-04-26 17:27 | -23.42822 | -46.48132 | 2466 ft | 4 kts | 175° |
| 2026-04-26 17:27 | -23.42851 | -46.48129 | 2460 ft | 4 kts | 175° |
| 2026-04-26 17:27 | -23.42879 | -46.48127 | 2460 ft | 4 kts | 177° |
| 2026-04-26 17:27 | -23.42907 | -46.48130 | 2464 ft | 4 kts | 193° |
| 2026-04-26 17:28 | -23.42933 | -46.48138 | 2463 ft | 4 kts | 194° |
| 2026-04-26 17:28 | -23.42960 | -46.48140 | 2460 ft | 4 kts | 178° |
| 2026-04-26 17:28 | -23.42986 | -46.48138 | 2465 ft | 4 kts | 175° |
| 2026-04-26 17:28 | -23.43012 | -46.48136 | 2466 ft | 4 kts | 174° |
| 2026-04-26 17:29 | -23.43037 | -46.48133 | 2460 ft | 4 kts | 175° |
| 2026-04-26 17:29 | -23.43046 | -46.48133 | 2463 ft | 4 kts | 175° |
| 2026-04-26 17:29 | -23.43091 | -46.48128 | 2460 ft | 5 kts | 174° |
| 2026-04-26 17:29 | -23.43130 | -46.48120 | 2463 ft | 7 kts | 166° |
| 2026-04-26 17:30 | -23.43177 | -46.48098 | 2466 ft | 8 kts | 131° |
| 2026-04-26 17:30 | -23.43175 | -46.48034 | 2460 ft | 10 kts | 72° |
| 2026-04-26 17:30 | -23.43155 | -46.47959 | 2460 ft | 11 kts | 73° |
| 2026-04-26 17:30 | -23.43132 | -46.47873 | 2460 ft | 12 kts | 73° |
| 2026-04-26 17:31 | -23.43106 | -46.47779 | 2464 ft | 14 kts | 73° |
| 2026-04-26 17:31 | -23.43078 | -46.47677 | 2460 ft | 15 kts | 73° |
| 2026-04-26 17:31 | -23.43048 | -46.47566 | 2459 ft | 16 kts | 73° |
| 2026-04-26 17:31 | -23.43016 | -46.47449 | 2463 ft | 17 kts | 73° |
| 2026-04-26 17:32 | -23.42983 | -46.47326 | 2459 ft | 17 kts | 73° |
| 2026-04-26 17:32 | -23.42948 | -46.47197 | 2465 ft | 18 kts | 73° |
| 2026-04-26 17:32 | -23.42912 | -46.47064 | 2466 ft | 18 kts | 73° |
| 2026-04-26 17:32 | -23.42887 | -46.46974 | 2460 ft | 19 kts | 73° |
| 2026-04-26 17:33 | -23.42850 | -46.46835 | 2463 ft | 19 kts | 73° |
| 2026-04-26 17:33 | -23.42811 | -46.46692 | 2461 ft | 20 kts | 73° |
| 2026-04-26 17:33 | -23.42771 | -46.46545 | 2460 ft | 21 kts | 73° |
| 2026-04-26 17:34 | -23.42687 | -46.46237 | 2460 ft | 21 kts | 73° |
| 2026-04-26 17:34 | -23.42646 | -46.46085 | 2462 ft | 20 kts | 74° |
| 2026-04-26 17:34 | -23.42607 | -46.45942 | 2465 ft | 19 kts | 73° |
| 2026-04-26 17:34 | -23.42569 | -46.45803 | 2460 ft | 19 kts | 73° |
| 2026-04-26 17:35 | -23.42532 | -46.45667 | 2466 ft | 20 kts | 73° |
| 2026-04-26 17:35 | -23.42491 | -46.45517 | 2467 ft | 22 kts | 73° |
| 2026-04-26 17:35 | -23.42447 | -46.45352 | 2466 ft | 23 kts | 73° |
| 2026-04-26 17:35 | -23.42417 | -46.45243 | 2463 ft | 10 kts | 73° |
| 2026-04-26 17:36 | -23.42398 | -46.45173 | 2460 ft | 9 kts | 73° |
| 2026-04-26 17:36 | -23.42395 | -46.45118 | 2460 ft | 7 kts | 112° |
| 2026-04-26 17:36 | -23.42433 | -46.45090 | 2460 ft | 7 kts | 167° |
| 2026-04-26 17:36 | -23.42479 | -46.45075 | 2463 ft | 7 kts | 164° |
| 2026-04-26 17:37 | -23.42522 | -46.45062 | 2460 ft | 5 kts | 164° |
| 2026-04-26 17:37 | -23.42548 | -46.45077 | 2465 ft | 5 kts | 249° |
| 2026-04-26 17:37 | -23.42559 | -46.45118 | 2463 ft | 10 kts | 253° |
| 2026-04-26 17:38 | -23.42851 | -46.46203 | 2467 ft | 137 kts | 253° |
| 2026-04-26 17:38 | -23.43163 | -46.47387 | 2468 ft | 187 kts | 254° |
| 2026-04-26 17:38 | -23.43570 | -46.48819 | 2985 ft | 198 kts | 257° |
| 2026-04-26 17:38 | -23.43931 | -46.50287 | 3734 ft | 206 kts | 256° |
| 2026-04-26 17:39 | -23.44368 | -46.51796 | 4316 ft | 212 kts | 256° |
| 2026-04-26 17:39 | -23.44781 | -46.53338 | 4926 ft | 213 kts | 257° |
| 2026-04-26 17:39 | -23.45206 | -46.54890 | 5545 ft | 215 kts | 255° |
| 2026-04-26 17:39 | -23.45875 | -46.56349 | 6150 ft | 220 kts | 229° |
| 2026-04-26 17:40 | -23.47172 | -46.57239 | 6785 ft | 225 kts | 200° |
| 2026-04-26 17:40 | -23.48191 | -46.57467 | 7173 ft | 230 kts | 184° |
| 2026-04-26 17:40 | -23.50354 | -46.57249 | 7912 ft | 236 kts | 175° |
| 2026-04-26 17:40 | -23.51987 | -46.56986 | 8464 ft | 240 kts | 167° |
| 2026-04-26 17:41 | -23.53436 | -46.56085 | 8984 ft | 247 kts | 131° |
| 2026-04-26 17:41 | -23.54205 | -46.54426 | 9505 ft | 248 kts | 104° |
| 2026-04-26 17:41 | -23.54650 | -46.52577 | 9860 ft | 261 kts | 103° |
| 2026-04-26 17:41 | -23.55105 | -46.50605 | 10035 ft | 281 kts | 103° |
| 2026-04-26 17:42 | -23.55598 | -46.48466 | 10245 ft | 304 kts | 104° |
| 2026-04-26 17:42 | -23.56150 | -46.46118 | 10457 ft | 327 kts | 104° |
| 2026-04-26 17:42 | -23.56737 | -46.43662 | 10864 ft | 341 kts | 104° |
| 2026-04-26 17:42 | -23.57343 | -46.41141 | 11500 ft | 346 kts | 104° |
| 2026-04-26 17:43 | -23.57920 | -46.38630 | 12219 ft | 348 kts | 99° |
| 2026-04-26 17:43 | -23.57884 | -46.36006 | 12896 ft | 349 kts | 77° |
| 2026-04-26 17:43 | -23.57343 | -46.33417 | 13549 ft | 352 kts | 75° |
| 2026-04-26 17:43 | -23.56739 | -46.30799 | 14084 ft | 359 kts | 74° |
| 2026-04-26 17:44 | -23.56119 | -46.28150 | 14718 ft | 363 kts | 75° |
| 2026-04-26 17:44 | -23.55502 | -46.25476 | 15367 ft | 366 kts | 75° |
| 2026-04-26 17:44 | -23.54887 | -46.22765 | 15955 ft | 371 kts | 75° |
| 2026-04-26 17:44 | -23.54274 | -46.20023 | 16532 ft | 375 kts | 75° |
| 2026-04-26 17:45 | -23.53658 | -46.17255 | 17122 ft | 378 kts | 76° |
| 2026-04-26 17:45 | -23.52904 | -46.14496 | 17645 ft | 382 kts | 62° |
| 2026-04-26 17:45 | -23.51297 | -46.12226 | 18153 ft | 380 kts | 36° |
| 2026-04-26 17:45 | -23.49005 | -46.10843 | 18722 ft | 375 kts | 15° |
| 2026-04-26 17:46 | -23.46487 | -46.10174 | 19293 ft | 373 kts | 7° |
| 2026-04-26 17:46 | -23.43929 | -46.09640 | 19843 ft | 375 kts | 6° |
| 2026-04-26 17:46 | -23.41348 | -46.09115 | 20350 ft | 379 kts | 6° |
| 2026-04-26 17:46 | -23.38747 | -46.08580 | 20848 ft | 382 kts | 6° |
| 2026-04-26 17:47 | -23.36130 | -46.08032 | 21371 ft | 384 kts | 7° |
| 2026-04-26 17:47 | -23.34393 | -46.07663 | 21715 ft | 385 kts | 7° |
| 2026-04-26 17:47 | -23.30867 | -46.06904 | 22342 ft | 388 kts | 7° |
| 2026-04-26 17:47 | -23.28205 | -46.06327 | 22790 ft | 391 kts | 7° |
| 2026-04-26 17:48 | -23.25527 | -46.05744 | 23238 ft | 393 kts | 7° |
| 2026-04-26 17:48 | -23.22880 | -46.05167 | 23654 ft | 395 kts | 7° |
| 2026-04-26 17:48 | -23.20173 | -46.04578 | 24045 ft | 398 kts | 6° |
| 2026-04-26 17:48 | -23.17700 | -46.04039 | 24395 ft | 400 kts | 7° |
| 2026-04-26 17:49 | -23.14961 | -46.03444 | 24793 ft | 402 kts | 6° |
| 2026-04-26 17:49 | -23.12210 | -46.02845 | 25149 ft | 405 kts | 6° |
| 2026-04-26 17:49 | -23.09432 | -46.02241 | 25475 ft | 409 kts | 6° |
| 2026-04-26 17:49 | -23.06635 | -46.01633 | 25810 ft | 411 kts | 6° |
| 2026-04-26 17:50 | -23.03821 | -46.01021 | 26209 ft | 412 kts | 6° |
| 2026-04-26 17:50 | -23.00999 | -46.00407 | 26573 ft | 415 kts | 6° |
| 2026-04-26 17:50 | -22.98159 | -45.99790 | 26892 ft | 418 kts | 6° |
| 2026-04-26 17:50 | -22.95298 | -45.99170 | 27208 ft | 422 kts | 7° |
| 2026-04-26 17:51 | -22.92402 | -45.98541 | 27499 ft | 425 kts | 7° |
| 2026-04-26 17:51 | -22.89497 | -45.97912 | 27860 ft | 426 kts | 7° |
| 2026-04-26 17:51 | -22.86591 | -45.97255 | 28190 ft | 429 kts | 8° |
| 2026-04-26 17:51 | -22.83670 | -45.96518 | 28488 ft | 432 kts | 9° |
| 2026-04-26 17:52 | -22.80744 | -45.95747 | 28772 ft | 435 kts | 9° |
| 2026-04-26 17:52 | -22.77797 | -45.94963 | 29073 ft | 437 kts | 9° |
| 2026-04-26 17:52 | -22.74833 | -45.94179 | 29400 ft | 439 kts | 9° |
| 2026-04-26 17:52 | -22.71858 | -45.93399 | 29711 ft | 441 kts | 9° |
| 2026-04-26 17:53 | -22.68869 | -45.92622 | 29997 ft | 443 kts | 9° |
| 2026-04-26 17:53 | -22.65903 | -45.91855 | 30243 ft | 445 kts | 9° |
| 2026-04-26 17:53 | -22.62882 | -45.91077 | 30526 ft | 447 kts | 9° |
| 2026-04-26 17:54 | -22.56816 | -45.89516 | 31088 ft | 449 kts | 9° |
| 2026-04-26 17:54 | -22.53776 | -45.88733 | 31348 ft | 451 kts | 9° |
| 2026-04-26 17:54 | -22.50723 | -45.87948 | 31609 ft | 451 kts | 9° |
| 2026-04-26 17:54 | -22.47659 | -45.87160 | 31853 ft | 453 kts | 9° |
| 2026-04-26 17:55 | -22.44593 | -45.86372 | 32087 ft | 454 kts | 9° |
| 2026-04-26 17:55 | -22.41517 | -45.85581 | 32340 ft | 455 kts | 9° |
| 2026-04-26 17:55 | -22.38432 | -45.84788 | 32597 ft | 456 kts | 9° |
| 2026-04-26 17:55 | -22.35342 | -45.83995 | 32834 ft | 457 kts | 9° |
| 2026-04-26 17:56 | -22.32244 | -45.83198 | 33048 ft | 459 kts | 10° |
| 2026-04-26 17:56 | -22.26302 | -45.80475 | 33442 ft | 471 kts | 28° |
| 2026-04-26 17:57 | -22.21061 | -45.76131 | 33842 ft | 477 kts | 36° |
| 2026-04-26 17:57 | -22.18492 | -45.73852 | 34012 ft | 479 kts | 36° |
| 2026-04-26 17:57 | -22.15909 | -45.71560 | 34209 ft | 480 kts | 36° |
| 2026-04-26 17:57 | -22.13326 | -45.69285 | 34470 ft | 479 kts | 35° |
| 2026-04-26 17:58 | -22.05585 | -45.62566 | 35252 ft | 475 kts | 35° |
| 2026-04-26 17:59 | -22.00430 | -45.58128 | 35713 ft | 473 kts | 34° |
| 2026-04-26 17:59 | -21.97892 | -45.55945 | 35934 ft | 473 kts | 35° |
| 2026-04-26 17:59 | -21.95329 | -45.53741 | 36201 ft | 471 kts | 35° |
| 2026-04-26 17:59 | -21.93053 | -45.51783 | 36419 ft | 470 kts | 34° |
| 2026-04-26 18:00 | -21.90495 | -45.49584 | 36592 ft | 470 kts | 35° |
| 2026-04-26 18:00 | -21.87941 | -45.47391 | 36791 ft | 469 kts | 35° |
| 2026-04-26 18:00 | -21.85396 | -45.45204 | 37021 ft | 467 kts | 34° |
| 2026-04-26 18:00 | -21.82848 | -45.43017 | 36992 ft | 470 kts | 35° |
| 2026-04-26 18:01 | -21.77748 | -45.38643 | 36988 ft | 467 kts | 34° |
| 2026-04-26 18:01 | -21.72706 | -45.34320 | 36994 ft | 461 kts | 35° |
| 2026-04-26 18:02 | -21.68541 | -45.30757 | 37005 ft | 459 kts | 35° |
| 2026-04-26 18:02 | -21.62710 | -45.25767 | 37009 ft | 458 kts | 34° |
| 2026-04-26 18:03 | -21.57728 | -45.21508 | 37031 ft | 458 kts | 35° |
| 2026-04-26 18:03 | -21.52732 | -45.17244 | 37033 ft | 459 kts | 35° |
| 2026-04-26 18:04 | -21.47721 | -45.12967 | 37021 ft | 461 kts | 35° |
| 2026-04-26 18:05 | -21.40199 | -45.06559 | 37045 ft | 463 kts | 35° |
| 2026-04-26 18:05 | -21.35144 | -45.02255 | 37048 ft | 465 kts | 35° |
| 2026-04-26 18:06 | -21.30067 | -44.97936 | 37056 ft | 466 kts | 35° |
| 2026-04-26 18:06 | -21.25002 | -44.93585 | 37077 ft | 466 kts | 34° |
| 2026-04-26 18:07 | -21.19895 | -44.89313 | 37079 ft | 465 kts | 35° |
| 2026-04-26 18:07 | -21.14830 | -44.84999 | 37081 ft | 464 kts | 35° |
| 2026-04-26 18:08 | -21.09788 | -44.80725 | 37098 ft | 462 kts | 35° |
| 2026-04-26 18:08 | -21.04760 | -44.76469 | 37092 ft | 459 kts | 34° |
| 2026-04-26 18:09 | -20.99622 | -44.72459 | 37105 ft | 456 kts | 31° |
| 2026-04-26 18:09 | -20.94457 | -44.68600 | 37095 ft | 455 kts | 32° |
| 2026-04-26 18:10 | -20.89292 | -44.64689 | 37105 ft | 454 kts | 32° |
| 2026-04-26 18:10 | -20.84142 | -44.60757 | 37103 ft | 454 kts | 32° |
| 2026-04-26 18:11 | -20.78997 | -44.56833 | 37101 ft | 454 kts | 32° |
| 2026-04-26 18:11 | -20.73851 | -44.52914 | 37102 ft | 455 kts | 32° |
| 2026-04-26 18:12 | -20.68697 | -44.48990 | 37099 ft | 455 kts | 32° |
| 2026-04-26 18:12 | -20.63533 | -44.45061 | 37100 ft | 456 kts | 32° |
| 2026-04-26 18:13 | -20.58368 | -44.41133 | 37103 ft | 456 kts | 33° |
| 2026-04-26 18:13 | -20.53186 | -44.37195 | 37084 ft | 457 kts | 33° |
| 2026-04-26 18:14 | -20.48010 | -44.33266 | 37083 ft | 457 kts | 33° |
| 2026-04-26 18:14 | -20.42864 | -44.29356 | 37098 ft | 457 kts | 33° |
| 2026-04-26 18:15 | -20.37749 | -44.25315 | 37080 ft | 458 kts | 34° |
| 2026-04-26 18:15 | -20.32657 | -44.21243 | 37068 ft | 457 kts | 34° |
| 2026-04-26 18:16 | -20.27555 | -44.17187 | 37073 ft | 457 kts | 34° |
| 2026-04-26 18:16 | -20.19915 | -44.11138 | 37062 ft | 456 kts | 34° |
| 2026-04-26 18:17 | -20.14826 | -44.07113 | 37057 ft | 455 kts | 34° |
| 2026-04-26 18:17 | -20.09562 | -44.03422 | 37051 ft | 451 kts | 22° |
| 2026-04-26 18:18 | -20.03627 | -44.01500 | 37062 ft | 445 kts | 7° |
| 2026-04-26 18:18 | -19.97528 | -44.00443 | 37054 ft | 444 kts | 7° |
| 2026-04-26 18:19 | -19.91425 | -43.99398 | 37040 ft | 444 kts | 7° |
| 2026-04-26 18:19 | -19.85334 | -43.98317 | 37048 ft | 444 kts | 7° |
| 2026-04-26 18:20 | -19.79243 | -43.97216 | 37047 ft | 444 kts | 7° |
| 2026-04-26 18:20 | -19.75212 | -43.96487 | 37050 ft | 444 kts | 7° |
| 2026-04-26 18:21 | -19.68090 | -43.95203 | 37046 ft | 444 kts | 7° |
| 2026-04-26 18:21 | -19.60954 | -43.93912 | 37044 ft | 445 kts | 7° |
| 2026-04-26 18:22 | -19.55880 | -43.92997 | 37050 ft | 445 kts | 7° |
| 2026-04-26 18:22 | -19.48775 | -43.91714 | 37051 ft | 446 kts | 7° |
| 2026-04-26 18:23 | -19.43649 | -43.90789 | 37046 ft | 446 kts | 7° |
| 2026-04-26 18:23 | -19.37523 | -43.89686 | 37047 ft | 446 kts | 7° |
| 2026-04-26 18:24 | -19.31405 | -43.88585 | 37046 ft | 446 kts | 7° |
| 2026-04-26 18:24 | -19.25276 | -43.87483 | 37042 ft | 446 kts | 8° |
| 2026-04-26 18:25 | -19.19153 | -43.86383 | 37039 ft | 447 kts | 8° |
| 2026-04-26 18:25 | -19.13027 | -43.85282 | 37034 ft | 446 kts | 8° |
| 2026-04-26 18:26 | -19.06938 | -43.84189 | 37032 ft | 446 kts | 8° |
| 2026-04-26 18:26 | -19.00824 | -43.83094 | 37027 ft | 446 kts | 8° |
| 2026-04-26 18:27 | -18.94713 | -43.82000 | 37026 ft | 445 kts | 8° |
| 2026-04-26 18:27 | -18.88615 | -43.80909 | 37018 ft | 444 kts | 8° |
| 2026-04-26 18:28 | -18.82520 | -43.79818 | 37019 ft | 443 kts | 8° |
| 2026-04-26 18:28 | -18.76441 | -43.78731 | 37017 ft | 443 kts | 8° |
| 2026-04-26 18:29 | -18.70367 | -43.77646 | 37018 ft | 443 kts | 8° |
| 2026-04-26 18:29 | -18.64288 | -43.76561 | 37008 ft | 443 kts | 8° |
| 2026-04-26 18:30 | -18.58216 | -43.75478 | 37009 ft | 443 kts | 8° |
| 2026-04-26 18:30 | -18.52147 | -43.74397 | 37008 ft | 442 kts | 8° |
| 2026-04-26 18:31 | -18.46088 | -43.73317 | 37007 ft | 442 kts | 8° |
| 2026-04-26 18:31 | -18.40029 | -43.72238 | 37006 ft | 442 kts | 8° |
| 2026-04-26 18:32 | -18.34009 | -43.71168 | 37000 ft | 441 kts | 8° |
| 2026-04-26 18:32 | -18.27954 | -43.70092 | 36999 ft | 441 kts | 8° |
| 2026-04-26 18:33 | -18.21903 | -43.69016 | 37003 ft | 441 kts | 8° |
| 2026-04-26 18:33 | -18.15855 | -43.67942 | 37001 ft | 441 kts | 8° |
| 2026-04-26 18:34 | -18.09806 | -43.66830 | 36996 ft | 441 kts | 12° |
| 2026-04-26 18:34 | -18.03892 | -43.65091 | 37002 ft | 442 kts | 15° |
| 2026-04-26 18:35 | -17.98008 | -43.63204 | 37005 ft | 442 kts | 16° |
| 2026-04-26 18:35 | -17.92109 | -43.61342 | 36998 ft | 442 kts | 15° |
| 2026-04-26 18:36 | -17.86203 | -43.59512 | 36988 ft | 442 kts | 15° |
| 2026-04-26 18:36 | -17.80298 | -43.57699 | 36993 ft | 442 kts | 15° |
| 2026-04-26 18:37 | -17.74392 | -43.55890 | 36990 ft | 442 kts | 15° |
| 2026-04-26 18:37 | -17.68517 | -43.54090 | 36992 ft | 442 kts | 15° |
| 2026-04-26 18:38 | -17.62576 | -43.52271 | 36990 ft | 442 kts | 15° |
| 2026-04-26 18:38 | -17.56672 | -43.50464 | 36989 ft | 442 kts | 15° |
| 2026-04-26 18:39 | -17.50816 | -43.48673 | 36989 ft | 442 kts | 15° |
| 2026-04-26 18:39 | -17.44917 | -43.46866 | 36992 ft | 442 kts | 15° |
| 2026-04-26 18:40 | -17.39013 | -43.45065 | 36990 ft | 442 kts | 15° |
| 2026-04-26 18:40 | -17.33112 | -43.43265 | 36992 ft | 442 kts | 15° |
| 2026-04-26 18:41 | -17.27214 | -43.41467 | 36992 ft | 442 kts | 15° |
| 2026-04-26 18:41 | -17.21310 | -43.39668 | 36991 ft | 442 kts | 15° |
| 2026-04-26 18:42 | -17.15407 | -43.37870 | 36990 ft | 442 kts | 15° |
| 2026-04-26 18:42 | -17.09503 | -43.36072 | 36989 ft | 442 kts | 15° |
| 2026-04-26 18:43 | -17.03605 | -43.34276 | 36991 ft | 441 kts | 15° |
| 2026-04-26 18:43 | -16.97710 | -43.32484 | 36993 ft | 441 kts | 15° |
| 2026-04-26 18:44 | -16.91818 | -43.30696 | 36990 ft | 441 kts | 15° |
| 2026-04-26 18:44 | -16.85957 | -43.28918 | 36993 ft | 441 kts | 15° |
| 2026-04-26 18:45 | -16.80063 | -43.27129 | 36990 ft | 441 kts | 15° |
| 2026-04-26 18:45 | -16.74174 | -43.25342 | 36991 ft | 440 kts | 15° |
| 2026-04-26 18:46 | -16.68295 | -43.23559 | 36992 ft | 440 kts | 15° |
| 2026-04-26 18:46 | -16.62413 | -43.21778 | 36987 ft | 440 kts | 15° |
| 2026-04-26 18:47 | -16.56544 | -43.20001 | 36994 ft | 439 kts | 16° |
| 2026-04-26 18:47 | -16.50676 | -43.18228 | 36990 ft | 438 kts | 16° |
| 2026-04-26 18:48 | -16.44816 | -43.16457 | 36992 ft | 438 kts | 16° |
| 2026-04-26 18:48 | -16.38958 | -43.14687 | 36992 ft | 438 kts | 16° |
| 2026-04-26 18:49 | -16.33133 | -43.12928 | 36990 ft | 439 kts | 16° |
| 2026-04-26 18:49 | -16.27269 | -43.11159 | 36991 ft | 439 kts | 16° |
| 2026-04-26 18:50 | -16.21404 | -43.09390 | 36992 ft | 439 kts | 16° |
| 2026-04-26 18:50 | -16.15479 | -43.07800 | 36994 ft | 439 kts | 12° |
| 2026-04-26 18:51 | -16.09476 | -43.06579 | 36992 ft | 439 kts | 10° |
| 2026-04-26 18:51 | -16.03467 | -43.05396 | 36992 ft | 440 kts | 11° |
| 2026-04-26 18:52 | -15.97458 | -43.04186 | 36992 ft | 440 kts | 11° |
| 2026-04-26 18:52 | -15.91447 | -43.02981 | 36997 ft | 439 kts | 11° |
| 2026-04-26 18:53 | -15.85477 | -43.01633 | 36996 ft | 439 kts | 11° |
| 2026-04-26 18:53 | -15.79474 | -43.00433 | 36990 ft | 439 kts | 11° |
| 2026-04-26 18:54 | -15.73506 | -42.99245 | 36991 ft | 439 kts | 11° |
| 2026-04-26 18:54 | -15.67506 | -42.98029 | 36989 ft | 440 kts | 11° |
| 2026-04-26 18:55 | -15.61502 | -42.96799 | 36991 ft | 440 kts | 11° |
| 2026-04-26 18:55 | -15.55503 | -42.95568 | 36991 ft | 440 kts | 11° |
| 2026-04-26 18:56 | -15.49503 | -42.94337 | 36992 ft | 439 kts | 11° |
| 2026-04-26 18:56 | -15.43504 | -42.93107 | 36991 ft | 439 kts | 11° |
| 2026-04-26 18:57 | -15.38520 | -42.92087 | 36992 ft | 439 kts | 11° |
| 2026-04-26 18:57 | -15.31503 | -42.90651 | 36990 ft | 439 kts | 11° |
| 2026-04-26 18:58 | -15.25509 | -42.89423 | 36989 ft | 439 kts | 11° |
| 2026-04-26 18:58 | -15.19506 | -42.88195 | 36992 ft | 439 kts | 11° |
| 2026-04-26 18:59 | -15.13507 | -42.86969 | 36989 ft | 439 kts | 11° |
| 2026-04-26 18:59 | -15.07549 | -42.85754 | 36995 ft | 440 kts | 11° |
| 2026-04-26 19:00 | -15.01546 | -42.84529 | 36993 ft | 440 kts | 11° |
| 2026-04-26 19:00 | -14.95540 | -42.83304 | 36990 ft | 440 kts | 11° |
| 2026-04-26 19:01 | -14.89535 | -42.82080 | 36992 ft | 440 kts | 11° |
| 2026-04-26 19:01 | -14.83528 | -42.80856 | 36990 ft | 440 kts | 11° |
| 2026-04-26 19:02 | -14.77524 | -42.79634 | 36992 ft | 440 kts | 11° |
| 2026-04-26 19:02 | -14.72534 | -42.78617 | 36988 ft | 440 kts | 11° |
| 2026-04-26 19:03 | -14.65515 | -42.77188 | 36991 ft | 440 kts | 11° |
| 2026-04-26 19:03 | -14.59512 | -42.75969 | 36990 ft | 440 kts | 11° |
| 2026-04-26 19:04 | -14.53553 | -42.74758 | 36994 ft | 439 kts | 11° |
| 2026-04-26 19:04 | -14.47551 | -42.73539 | 37000 ft | 439 kts | 11° |
| 2026-04-26 19:05 | -14.38553 | -42.71715 | 37002 ft | 440 kts | 11° |
| 2026-04-26 19:06 | -14.32546 | -42.70496 | 37001 ft | 440 kts | 11° |
| 2026-04-26 19:06 | -14.26532 | -42.69277 | 37001 ft | 440 kts | 11° |
| 2026-04-26 19:07 | -14.20515 | -42.68060 | 37001 ft | 441 kts | 11° |
| 2026-04-26 19:07 | -14.14485 | -42.66839 | 36999 ft | 442 kts | 11° |
| 2026-04-26 19:08 | -14.08449 | -42.65616 | 37001 ft | 442 kts | 11° |
| 2026-04-26 19:08 | -14.02409 | -42.64394 | 37000 ft | 442 kts | 11° |
| 2026-04-26 19:09 | -13.96370 | -42.63174 | 36998 ft | 442 kts | 11° |
| 2026-04-26 19:09 | -13.90328 | -42.61953 | 37000 ft | 442 kts | 11° |
| 2026-04-26 19:10 | -13.84293 | -42.60735 | 37001 ft | 442 kts | 11° |
| 2026-04-26 19:10 | -13.78252 | -42.59515 | 37000 ft | 442 kts | 11° |
| 2026-04-26 19:11 | -13.72210 | -42.58296 | 37000 ft | 443 kts | 11° |
| 2026-04-26 19:11 | -13.66165 | -42.57078 | 37001 ft | 443 kts | 11° |
| 2026-04-26 19:12 | -13.60160 | -42.55868 | 37000 ft | 443 kts | 11° |
| 2026-04-26 19:12 | -13.54118 | -42.54652 | 37010 ft | 443 kts | 11° |
| 2026-04-26 19:13 | -13.48362 | -42.53492 | 37009 ft | 442 kts | 11° |
| 2026-04-26 19:13 | -13.42329 | -42.52280 | 37008 ft | 442 kts | 11° |
| 2026-04-26 19:14 | -13.36301 | -42.51067 | 37010 ft | 442 kts | 11° |
| 2026-04-26 19:14 | -13.31242 | -42.50051 | 37008 ft | 441 kts | 11° |
| 2026-04-26 19:15 | -13.25261 | -42.48849 | 37012 ft | 441 kts | 11° |
| 2026-04-26 19:15 | -13.19237 | -42.47640 | 37011 ft | 442 kts | 11° |
| 2026-04-26 19:16 | -13.13202 | -42.46429 | 37008 ft | 442 kts | 11° |
| 2026-04-26 19:16 | -13.07171 | -42.45220 | 37012 ft | 442 kts | 11° |
| 2026-04-26 19:17 | -13.01135 | -42.44010 | 37008 ft | 442 kts | 11° |
| 2026-04-26 19:17 | -12.95098 | -42.42799 | 37010 ft | 442 kts | 12° |
| 2026-04-26 19:18 | -12.89064 | -42.41589 | 37011 ft | 442 kts | 11° |
| 2026-04-26 19:18 | -12.83021 | -42.40380 | 37008 ft | 442 kts | 12° |
| 2026-04-26 19:19 | -12.76985 | -42.39173 | 37008 ft | 442 kts | 12° |
| 2026-04-26 19:19 | -12.70944 | -42.37965 | 37008 ft | 442 kts | 12° |
| 2026-04-26 19:20 | -12.64902 | -42.36757 | 37011 ft | 443 kts | 12° |
| 2026-04-26 19:20 | -12.58854 | -42.35548 | 37018 ft | 443 kts | 12° |
| 2026-04-26 19:21 | -12.52807 | -42.34340 | 37016 ft | 443 kts | 12° |
| 2026-04-26 19:21 | -12.46761 | -42.33134 | 37019 ft | 443 kts | 12° |
| 2026-04-26 19:22 | -12.40745 | -42.31934 | 37010 ft | 444 kts | 12° |
| 2026-04-26 19:22 | -12.34681 | -42.30724 | 37012 ft | 444 kts | 12° |
| 2026-04-26 19:23 | -12.28608 | -42.29513 | 37008 ft | 445 kts | 12° |
| 2026-04-26 19:23 | -12.22530 | -42.28301 | 37012 ft | 445 kts | 12° |
| 2026-04-26 19:24 | -12.16454 | -42.27092 | 37008 ft | 445 kts | 12° |
| 2026-04-26 19:24 | -12.07324 | -42.25275 | 37010 ft | 446 kts | 12° |
| 2026-04-26 19:25 | -12.02267 | -42.24268 | 37010 ft | 446 kts | 12° |
| 2026-04-26 19:25 | -11.95151 | -42.22854 | 37006 ft | 446 kts | 12° |
| 2026-04-26 19:26 | -11.89060 | -42.21644 | 37010 ft | 446 kts | 12° |
| 2026-04-26 19:26 | -11.82973 | -42.20439 | 37009 ft | 445 kts | 12° |
| 2026-04-26 19:27 | -11.76893 | -42.19231 | 37011 ft | 445 kts | 12° |
| 2026-04-26 19:27 | -11.70807 | -42.18021 | 37011 ft | 445 kts | 12° |
| 2026-04-26 19:28 | -11.64718 | -42.16812 | 37007 ft | 446 kts | 12° |
| 2026-04-26 19:28 | -11.58675 | -42.15613 | 37009 ft | 446 kts | 12° |
| 2026-04-26 19:29 | -11.52588 | -42.14407 | 37003 ft | 445 kts | 12° |
| 2026-04-26 19:29 | -11.46508 | -42.13202 | 36996 ft | 445 kts | 12° |
| 2026-04-26 19:30 | -11.40438 | -42.12001 | 37002 ft | 444 kts | 12° |
| 2026-04-26 19:30 | -11.35393 | -42.11003 | 37000 ft | 444 kts | 12° |
| 2026-04-26 19:31 | -11.28293 | -42.09598 | 36999 ft | 444 kts | 12° |
| 2026-04-26 19:31 | -11.22229 | -42.08398 | 37001 ft | 444 kts | 12° |
| 2026-04-26 19:32 | -11.16163 | -42.07199 | 36991 ft | 444 kts | 12° |
| 2026-04-26 19:32 | -11.10138 | -42.06009 | 36991 ft | 444 kts | 11° |
| 2026-04-26 19:33 | -11.04081 | -42.04813 | 36991 ft | 444 kts | 12° |
| 2026-04-26 19:33 | -10.98013 | -42.03614 | 36992 ft | 444 kts | 12° |
| 2026-04-26 19:34 | -10.91949 | -42.02417 | 36989 ft | 445 kts | 11° |
| 2026-04-26 19:34 | -10.85871 | -42.01218 | 36983 ft | 445 kts | 11° |
| 2026-04-26 19:35 | -10.79789 | -42.00018 | 36981 ft | 445 kts | 11° |
| 2026-04-26 19:35 | -10.73707 | -41.98792 | 36981 ft | 446 kts | 11° |
| 2026-04-26 19:36 | -10.68656 | -41.97762 | 36979 ft | 446 kts | 11° |
| 2026-04-26 19:36 | -10.61508 | -41.96423 | 36978 ft | 447 kts | 11° |
| 2026-04-26 19:37 | -10.55401 | -41.95271 | 36975 ft | 447 kts | 11° |
| 2026-04-26 19:37 | -10.49287 | -41.94096 | 36971 ft | 447 kts | 11° |
| 2026-04-26 19:38 | -10.43208 | -41.92921 | 36972 ft | 448 kts | 11° |
| 2026-04-26 19:38 | -10.37037 | -41.91727 | 36972 ft | 448 kts | 11° |
| 2026-04-26 19:39 | -10.30946 | -41.90550 | 36963 ft | 448 kts | 11° |
| 2026-04-26 19:39 | -10.24818 | -41.89367 | 36964 ft | 449 kts | 11° |
| 2026-04-26 19:40 | -10.18684 | -41.88183 | 36962 ft | 449 kts | 11° |
| 2026-04-26 19:40 | -10.12544 | -41.86999 | 36959 ft | 449 kts | 11° |
| 2026-04-26 19:41 | -10.06413 | -41.85814 | 36952 ft | 449 kts | 11° |
| 2026-04-26 19:41 | -10.01310 | -41.84831 | 36954 ft | 449 kts | 11° |
| 2026-04-26 19:42 | -9.94140 | -41.83451 | 36954 ft | 449 kts | 11° |
| 2026-04-26 19:42 | -9.88012 | -41.82269 | 36952 ft | 448 kts | 11° |
| 2026-04-26 19:43 | -9.81887 | -41.81091 | 36955 ft | 448 kts | 11° |
| 2026-04-26 19:43 | -9.75766 | -41.79913 | 36951 ft | 447 kts | 11° |
| 2026-04-26 19:44 | -9.69651 | -41.78738 | 36956 ft | 447 kts | 11° |
| 2026-04-26 19:44 | -9.63577 | -41.77569 | 36946 ft | 447 kts | 11° |
| 2026-04-26 19:45 | -9.57461 | -41.76392 | 36944 ft | 448 kts | 11° |
| 2026-04-26 19:45 | -9.51346 | -41.75216 | 36945 ft | 447 kts | 11° |
| 2026-04-26 19:46 | -9.45235 | -41.74043 | 36944 ft | 447 kts | 11° |
| 2026-04-26 19:46 | -9.39129 | -41.72870 | 36946 ft | 446 kts | 12° |
| 2026-04-26 19:47 | -9.34318 | -41.71946 | 36944 ft | 446 kts | 12° |
| 2026-04-26 19:47 | -9.27192 | -41.70580 | 36937 ft | 446 kts | 12° |
| 2026-04-26 19:48 | -9.21104 | -41.69410 | 36935 ft | 445 kts | 12° |
| 2026-04-26 19:48 | -9.15017 | -41.68242 | 36935 ft | 445 kts | 12° |
| 2026-04-26 19:49 | -9.08941 | -41.67078 | 36938 ft | 444 kts | 12° |
| 2026-04-26 19:49 | -9.02867 | -41.65914 | 36935 ft | 444 kts | 12° |
| 2026-04-26 19:50 | -8.98804 | -41.65135 | 36938 ft | 444 kts | 12° |
| 2026-04-26 19:50 | -8.92441 | -41.63917 | 36939 ft | 443 kts | 12° |
| 2026-04-26 19:51 | -8.86381 | -41.62757 | 36937 ft | 443 kts | 12° |
| 2026-04-26 19:51 | -8.80545 | -41.61640 | 36933 ft | 444 kts | 12° |
| 2026-04-26 19:52 | -8.74484 | -41.60479 | 36934 ft | 444 kts | 12° |
| 2026-04-26 19:52 | -8.68461 | -41.59326 | 36937 ft | 443 kts | 13° |
| 2026-04-26 19:53 | -8.62407 | -41.58168 | 36934 ft | 443 kts | 13° |
| 2026-04-26 19:53 | -8.56353 | -41.57013 | 36938 ft | 443 kts | 13° |
| 2026-04-26 19:54 | -8.50297 | -41.55855 | 36931 ft | 443 kts | 13° |
| 2026-04-26 19:54 | -8.44248 | -41.54699 | 36935 ft | 442 kts | 13° |
| 2026-04-26 19:55 | -8.38206 | -41.53545 | 36935 ft | 442 kts | 13° |
| 2026-04-26 19:55 | -8.32172 | -41.52392 | 36934 ft | 441 kts | 13° |
| 2026-04-26 19:56 | -8.26144 | -41.51241 | 36936 ft | 441 kts | 13° |
| 2026-04-26 19:56 | -8.20116 | -41.50092 | 36935 ft | 440 kts | 13° |
| 2026-04-26 19:57 | -8.14096 | -41.48944 | 36937 ft | 440 kts | 13° |
| 2026-04-26 19:57 | -8.08077 | -41.47796 | 36933 ft | 440 kts | 13° |
| 2026-04-26 19:58 | -8.02063 | -41.46650 | 36937 ft | 440 kts | 13° |
| 2026-04-26 19:58 | -7.96040 | -41.45501 | 36936 ft | 441 kts | 13° |
| 2026-04-26 19:59 | -7.90007 | -41.44355 | 36933 ft | 441 kts | 13° |
| 2026-04-26 19:59 | -7.83983 | -41.43206 | 36935 ft | 441 kts | 13° |
| 2026-04-26 20:00 | -7.77959 | -41.42058 | 36937 ft | 441 kts | 13° |
| 2026-04-26 20:00 | -7.71964 | -41.40915 | 36936 ft | 442 kts | 13° |
| 2026-04-26 20:01 | -7.65922 | -41.39765 | 36936 ft | 442 kts | 13° |
| 2026-04-26 20:01 | -7.59881 | -41.38617 | 36932 ft | 442 kts | 13° |
| 2026-04-26 20:02 | -7.53843 | -41.37470 | 36936 ft | 441 kts | 13° |
| 2026-04-26 20:02 | -7.49806 | -41.36702 | 36935 ft | 441 kts | 13° |
| 2026-04-26 20:03 | -7.41783 | -41.35177 | 36936 ft | 441 kts | 13° |
| 2026-04-26 20:03 | -7.35749 | -41.34030 | 36936 ft | 441 kts | 13° |
| 2026-04-26 20:04 | -7.29721 | -41.32886 | 36937 ft | 441 kts | 13° |
| 2026-04-26 20:04 | -7.23687 | -41.31740 | 36938 ft | 442 kts | 13° |
| 2026-04-26 20:05 | -7.17642 | -41.30591 | 36934 ft | 442 kts | 13° |
| 2026-04-26 20:05 | -7.12621 | -41.29637 | 36932 ft | 442 kts | 13° |
| 2026-04-26 20:06 | -7.06579 | -41.28490 | 36935 ft | 442 kts | 13° |
| 2026-04-26 20:06 | -7.00530 | -41.27343 | 36938 ft | 442 kts | 13° |
| 2026-04-26 20:07 | -6.94494 | -41.26198 | 36935 ft | 442 kts | 13° |
| 2026-04-26 20:07 | -6.87471 | -41.24868 | 36936 ft | 442 kts | 13° |
| 2026-04-26 20:08 | -6.82409 | -41.23908 | 36935 ft | 442 kts | 13° |
| 2026-04-26 20:08 | -6.76374 | -41.22766 | 36932 ft | 442 kts | 13° |
| 2026-04-26 20:09 | -6.70374 | -41.21627 | 36934 ft | 442 kts | 13° |
| 2026-04-26 20:09 | -6.64331 | -41.20481 | 36938 ft | 442 kts | 13° |
| 2026-04-26 20:10 | -6.58292 | -41.19326 | 36933 ft | 442 kts | 13° |
| 2026-04-26 20:10 | -6.52253 | -41.18129 | 36936 ft | 442 kts | 14° |
| 2026-04-26 20:11 | -6.46212 | -41.16924 | 36938 ft | 442 kts | 14° |
| 2026-04-26 20:12 | -6.37151 | -41.15126 | 36933 ft | 443 kts | 14° |
| 2026-04-26 20:12 | -6.31100 | -41.13929 | 36919 ft | 444 kts | 14° |
| 2026-04-26 20:13 | -6.25043 | -41.12729 | 36922 ft | 443 kts | 14° |
| 2026-04-26 20:13 | -6.18999 | -41.11533 | 36930 ft | 443 kts | 14° |
| 2026-04-26 20:14 | -6.12951 | -41.10337 | 36931 ft | 443 kts | 14° |
| 2026-04-26 20:14 | -6.06907 | -41.09144 | 36930 ft | 443 kts | 14° |
| 2026-04-26 20:15 | -6.00854 | -41.07948 | 36930 ft | 443 kts | 14° |
| 2026-04-26 20:15 | -5.94808 | -41.06752 | 36913 ft | 443 kts | 14° |
| 2026-04-26 20:16 | -5.88799 | -41.05564 | 36930 ft | 443 kts | 14° |
| 2026-04-26 20:16 | -5.82754 | -41.04368 | 36932 ft | 443 kts | 14° |
| 2026-04-26 20:17 | -5.76699 | -41.03173 | 36918 ft | 443 kts | 14° |
| 2026-04-26 20:17 | -5.70654 | -41.01979 | 36921 ft | 443 kts | 14° |
| 2026-04-26 20:18 | -5.64597 | -41.00782 | 36922 ft | 444 kts | 14° |
| 2026-04-26 20:18 | -5.58541 | -40.99588 | 36912 ft | 444 kts | 14° |
| 2026-04-26 20:19 | -5.52476 | -40.98392 | 36920 ft | 443 kts | 13° |
| 2026-04-26 20:19 | -5.46425 | -40.97198 | 36922 ft | 443 kts | 14° |
| 2026-04-26 20:20 | -5.40369 | -40.96005 | 36922 ft | 444 kts | 14° |
| 2026-04-26 20:20 | -5.34312 | -40.94811 | 36910 ft | 444 kts | 14° |
| 2026-04-26 20:21 | -5.28256 | -40.93616 | 36902 ft | 444 kts | 14° |
| 2026-04-26 20:21 | -5.22195 | -40.92420 | 36909 ft | 443 kts | 14° |
| 2026-04-26 20:22 | -5.16175 | -40.91233 | 36893 ft | 444 kts | 14° |
| 2026-04-26 20:22 | -5.13083 | -40.90622 | 36437 ft | 449 kts | 14° |
| 2026-04-26 20:22 | -5.10064 | -40.90026 | 35937 ft | 447 kts | 13° |
| 2026-04-26 20:22 | -5.06972 | -40.89418 | 35327 ft | 447 kts | 13° |
| 2026-04-26 20:23 | -5.03962 | -40.88826 | 34718 ft | 447 kts | 13° |
| 2026-04-26 20:23 | -5.00907 | -40.88225 | 34092 ft | 447 kts | 13° |
| 2026-04-26 20:23 | -4.97855 | -40.87624 | 33457 ft | 448 kts | 13° |
| 2026-04-26 20:23 | -4.94798 | -40.87022 | 32803 ft | 448 kts | 13° |
| 2026-04-26 20:24 | -4.91747 | -40.86420 | 32138 ft | 449 kts | 13° |
| 2026-04-26 20:24 | -4.88673 | -40.85814 | 31601 ft | 447 kts | 13° |
| 2026-04-26 20:24 | -4.85634 | -40.85216 | 31128 ft | 443 kts | 13° |
| 2026-04-26 20:24 | -4.82626 | -40.84625 | 30655 ft | 439 kts | 13° |
| 2026-04-26 20:25 | -4.79642 | -40.84038 | 30193 ft | 435 kts | 13° |
| 2026-04-26 20:25 | -4.77642 | -40.83645 | 29878 ft | 433 kts | 13° |
| 2026-04-26 20:25 | -4.73742 | -40.82879 | 29269 ft | 428 kts | 13° |
| 2026-04-26 20:25 | -4.70835 | -40.82306 | 28799 ft | 425 kts | 13° |
| 2026-04-26 20:26 | -4.67948 | -40.81738 | 28334 ft | 421 kts | 13° |
| 2026-04-26 20:26 | -4.65083 | -40.81174 | 27870 ft | 418 kts | 13° |
| 2026-04-26 20:26 | -4.62240 | -40.80614 | 27406 ft | 415 kts | 13° |
| 2026-04-26 20:26 | -4.59424 | -40.80059 | 26950 ft | 411 kts | 12° |
| 2026-04-26 20:27 | -4.56627 | -40.79509 | 26498 ft | 408 kts | 12° |
| 2026-04-26 20:27 | -4.53845 | -40.78962 | 26040 ft | 405 kts | 12° |
| 2026-04-26 20:27 | -4.51086 | -40.78419 | 25594 ft | 403 kts | 12° |
| 2026-04-26 20:27 | -4.48350 | -40.77881 | 25148 ft | 400 kts | 12° |
| 2026-04-26 20:28 | -4.45627 | -40.77345 | 24700 ft | 397 kts | 12° |
| 2026-04-26 20:28 | -4.42929 | -40.76815 | 24261 ft | 394 kts | 12° |
| 2026-04-26 20:28 | -4.40241 | -40.76286 | 23821 ft | 392 kts | 12° |
| 2026-04-26 20:28 | -4.37612 | -40.75769 | 23393 ft | 389 kts | 12° |
| 2026-04-26 20:29 | -4.34966 | -40.75249 | 22955 ft | 386 kts | 12° |
| 2026-04-26 20:29 | -4.32344 | -40.74734 | 22524 ft | 384 kts | 12° |
| 2026-04-26 20:29 | -4.29727 | -40.74219 | 22098 ft | 381 kts | 12° |
| 2026-04-26 20:29 | -4.27136 | -40.73710 | 21669 ft | 379 kts | 12° |
| 2026-04-26 20:30 | -4.24556 | -40.73202 | 21249 ft | 376 kts | 12° |
| 2026-04-26 20:30 | -4.21998 | -40.72699 | 20828 ft | 374 kts | 12° |
| 2026-04-26 20:30 | -4.19453 | -40.72199 | 20405 ft | 371 kts | 12° |
| 2026-04-26 20:30 | -4.16924 | -40.71701 | 19989 ft | 369 kts | 12° |
| 2026-04-26 20:31 | -4.14418 | -40.71208 | 19574 ft | 366 kts | 12° |
| 2026-04-26 20:31 | -4.11923 | -40.70719 | 19168 ft | 364 kts | 12° |
| 2026-04-26 20:31 | -4.09447 | -40.70232 | 18761 ft | 362 kts | 12° |
| 2026-04-26 20:31 | -4.06987 | -40.69749 | 18354 ft | 359 kts | 12° |
| 2026-04-26 20:32 | -4.04545 | -40.69269 | 17949 ft | 357 kts | 12° |
| 2026-04-26 20:32 | -4.02119 | -40.68793 | 17548 ft | 354 kts | 12° |
| 2026-04-26 20:32 | -3.99706 | -40.68319 | 17158 ft | 352 kts | 12° |
| 2026-04-26 20:32 | -3.97316 | -40.67850 | 16753 ft | 349 kts | 12° |
| 2026-04-26 20:33 | -3.94939 | -40.67383 | 16358 ft | 347 kts | 12° |
| 2026-04-26 20:33 | -3.92604 | -40.66924 | 15967 ft | 345 kts | 12° |
| 2026-04-26 20:33 | -3.90260 | -40.66463 | 15576 ft | 343 kts | 12° |
| 2026-04-26 20:33 | -3.87899 | -40.65999 | 15176 ft | 341 kts | 11° |
| 2026-04-26 20:34 | -3.85608 | -40.65550 | 14799 ft | 339 kts | 11° |
| 2026-04-26 20:34 | -3.83299 | -40.65096 | 14415 ft | 337 kts | 11° |
| 2026-04-26 20:34 | -3.80994 | -40.64644 | 14035 ft | 339 kts | 11° |
| 2026-04-26 20:34 | -3.78677 | -40.64189 | 13649 ft | 341 kts | 11° |
| 2026-04-26 20:35 | -3.76333 | -40.63729 | 13264 ft | 346 kts | 11° |
| 2026-04-26 20:35 | -3.73960 | -40.63263 | 12867 ft | 349 kts | 11° |
| 2026-04-26 20:35 | -3.71582 | -40.62797 | 12464 ft | 347 kts | 11° |
| 2026-04-26 20:35 | -3.69223 | -40.62333 | 12060 ft | 344 kts | 11° |
| 2026-04-26 20:36 | -3.66886 | -40.61874 | 11664 ft | 341 kts | 11° |
| 2026-04-26 20:36 | -3.64561 | -40.61418 | 11272 ft | 339 kts | 11° |
| 2026-04-26 20:36 | -3.62258 | -40.60965 | 10883 ft | 336 kts | 11° |
| 2026-04-26 20:36 | -3.60001 | -40.60523 | 10550 ft | 332 kts | 11° |
| 2026-04-26 20:37 | -3.57771 | -40.60086 | 10431 ft | 322 kts | 11° |
| 2026-04-26 20:37 | -3.55630 | -40.59666 | 10276 ft | 313 kts | 11° |
| 2026-04-26 20:37 | -3.53523 | -40.59252 | 10144 ft | 304 kts | 11° |
| 2026-04-26 20:37 | -3.51481 | -40.58852 | 10016 ft | 295 kts | 11° |
| 2026-04-26 20:38 | -3.49493 | -40.58462 | 9887 ft | 287 kts | 11° |
| 2026-04-26 20:38 | -3.47536 | -40.58077 | 9607 ft | 286 kts | 11° |
| 2026-04-26 20:38 | -3.45596 | -40.57694 | 9337 ft | 283 kts | 12° |
| 2026-04-26 20:38 | -3.43669 | -40.57315 | 9060 ft | 282 kts | 12° |
| 2026-04-26 20:39 | -3.41753 | -40.56942 | 8773 ft | 280 kts | 11° |
| 2026-04-26 20:39 | -3.40486 | -40.56709 | 8588 ft | 279 kts | 12° |
| 2026-04-26 20:39 | -3.37947 | -40.56193 | 8220 ft | 277 kts | 12° |
| 2026-04-26 20:39 | -3.36056 | -40.55820 | 7935 ft | 276 kts | 12° |
| 2026-04-26 20:40 | -3.34176 | -40.55452 | 7658 ft | 275 kts | 12° |
| 2026-04-26 20:40 | -3.32305 | -40.55086 | 7382 ft | 274 kts | 12° |
| 2026-04-26 20:40 | -3.30440 | -40.54722 | 7105 ft | 272 kts | 12° |
| 2026-04-26 20:40 | -3.28590 | -40.54359 | 6832 ft | 271 kts | 12° |
| 2026-04-26 20:41 | -3.26743 | -40.53997 | 6556 ft | 270 kts | 12° |
| 2026-04-26 20:41 | -3.24905 | -40.53636 | 6284 ft | 268 kts | 12° |
| 2026-04-26 20:41 | -3.23077 | -40.53278 | 6011 ft | 267 kts | 12° |
| 2026-04-26 20:41 | -3.21256 | -40.52922 | 5792 ft | 264 kts | 12° |
| 2026-04-26 20:42 | -3.19504 | -40.52578 | 5667 ft | 257 kts | 12° |
| 2026-04-26 20:42 | -3.17775 | -40.52238 | 5557 ft | 249 kts | 12° |
| 2026-04-26 20:42 | -3.16113 | -40.51913 | 5532 ft | 238 kts | 12° |
| 2026-04-26 20:42 | -3.14533 | -40.51603 | 5454 ft | 225 kts | 12° |
| 2026-04-26 20:43 | -3.13027 | -40.51308 | 5270 ft | 219 kts | 12° |
| 2026-04-26 20:43 | -3.11547 | -40.51017 | 5051 ft | 216 kts | 12° |
| 2026-04-26 20:43 | -3.10085 | -40.50732 | 4856 ft | 210 kts | 12° |
| 2026-04-26 20:43 | -3.08674 | -40.50460 | 4650 ft | 203 kts | 9° |
| 2026-04-26 20:44 | -3.07287 | -40.50503 | 4432 ft | 197 kts | 352° |
| 2026-04-26 20:44 | -3.05952 | -40.50683 | 4227 ft | 191 kts | 354° |
| 2026-04-26 20:44 | -3.04639 | -40.50841 | 4031 ft | 189 kts | 354° |
| 2026-04-26 20:44 | -3.03333 | -40.50994 | 3837 ft | 189 kts | 354° |
| 2026-04-26 20:45 | -3.02025 | -40.51143 | 3639 ft | 190 kts | 354° |
| 2026-04-26 20:45 | -3.00718 | -40.51289 | 3449 ft | 188 kts | 354° |
| 2026-04-26 20:45 | -2.99414 | -40.51407 | 3233 ft | 188 kts | 5° |
| 2026-04-26 20:45 | -2.98275 | -40.50879 | 3009 ft | 182 kts | 52° |
| 2026-04-26 20:46 | -2.97652 | -40.49792 | 2869 ft | 182 kts | 64° |
| 2026-04-26 20:46 | -2.97092 | -40.48667 | 2663 ft | 183 kts | 64° |
| 2026-04-26 20:46 | -2.96530 | -40.47540 | 2450 ft | 179 kts | 64° |
| 2026-04-26 20:46 | -2.95980 | -40.46434 | 2208 ft | 175 kts | 64° |
| 2026-04-26 20:47 | -2.95453 | -40.45376 | 1998 ft | 166 kts | 63° |
| 2026-04-26 20:47 | -2.95107 | -40.44682 | 1849 ft | 165 kts | 63° |
| 2026-04-26 20:47 | -2.94430 | -40.43329 | 1568 ft | 163 kts | 63° |
| 2026-04-26 20:47 | -2.93941 | -40.42338 | 1399 ft | 157 kts | 63° |
| 2026-04-26 20:48 | -2.93459 | -40.41363 | 1160 ft | 155 kts | 62° |
| 2026-04-26 20:48 | -2.92946 | -40.40425 | 947 ft | 153 kts | 56° |
| 2026-04-26 20:48 | -2.92440 | -40.39490 | 792 ft | 152 kts | 64° |
| 2026-04-26 20:48 | -2.92010 | -40.38505 | 573 ft | 158 kts | 64° |
| 2026-04-26 20:49 | -2.91525 | -40.37513 | 368 ft | 159 kts | 62° |
| 2026-04-26 20:49 | -2.91031 | -40.36530 | 138 ft | 157 kts | 63° |
| 2026-04-26 20:49 | -2.90582 | -40.35624 | 95 ft | 124 kts | 63° |
| 2026-04-26 20:49 | -2.90297 | -40.35047 | 99 ft | 61 kts | 63° |
| 2026-04-26 20:50 | -2.90231 | -40.34910 | 97 ft | 1 kts | 67° |
| 2026-04-26 20:50 | -2.90226 | -40.34897 | 98 ft | 4 kts | 67° |
| 2026-04-26 20:50 | -2.90217 | -40.34861 | 99 ft | 7 kts | 99° |
| 2026-04-26 20:50 | -2.90265 | -40.34827 | 100 ft | 11 kts | 154° |
| 2026-04-26 20:51 | -2.90315 | -40.34802 | 99 ft | 1 kts | 153° |
| 2026-04-26 20:51 | -2.90326 | -40.34796 | 97 ft | 2 kts | 153° |
| 2026-04-26 20:51 | -2.90342 | -40.34788 | 97 ft | 3 kts | 153° |
| 2026-04-26 20:51 | -2.90363 | -40.34778 | 99 ft | 4 kts | 153° |
| 2026-04-26 20:52 | -2.90387 | -40.34779 | 97 ft | 4 kts | 222° |
| 2026-04-26 20:52 | -2.90401 | -40.34802 | 97 ft | 4 kts | 224° |
| 2026-04-26 20:52 | -2.90427 | -40.34795 | 97 ft | 4 kts | 155° |
| 2026-04-26 20:52 | -2.90436 | -40.34791 | 98 ft | 2 kts | 154° |
| 2026-04-26 20:53 | -2.90450 | -40.34784 | 97 ft | 3 kts | 154° |
| 2026-04-26 20:53 | -2.90451 | -40.34784 | 98 ft | 0 kts | 154° |